createdAt,value
2019-02-14T00:00:00.310Z,102645.64
2019-02-14T00:02:24.799Z,102651.69
2019-02-14T00:04:49.203Z,102649.72
2019-02-14T00:07:13.721Z,102661.89
2019-02-14T00:09:38.224Z,102658.58
2019-02-14T00:12:02.660Z,102655.02
2019-02-14T00:14:27.077Z,102657.02
2019-02-14T00:16:51.557Z,102661.48
2019-02-14T00:19:15.999Z,102655.44
2019-02-14T00:21:40.418Z,102655.75
2019-02-14T00:24:04.935Z,102658.55
2019-02-14T00:26:29.331Z,102662.02
2019-02-14T00:28:53.769Z,102649.97
2019-02-14T00:31:18.255Z,102636.31
2019-02-14T00:33:42.707Z,102638.85
2019-02-14T00:36:07.177Z,102643.76
2019-02-14T00:38:31.625Z,102646.00
2019-02-14T00:40:56.036Z,102655.12
2019-02-14T00:43:20.470Z,102662.05
2019-02-14T00:45:44.874Z,102650.95
2019-02-14T00:48:09.295Z,102649.59
2019-02-14T00:50:33.728Z,102650.94
2019-02-14T00:52:58.154Z,102650.72
2019-02-14T00:55:22.594Z,102647.69
2019-02-14T00:57:47.001Z,102646.63
2019-02-14T01:00:11.938Z,102650.30
2019-02-14T01:02:36.347Z,102653.70
2019-02-14T01:05:00.778Z,102650.28
2019-02-14T01:07:25.191Z,102629.87
2019-02-14T01:09:49.620Z,102629.00
2019-02-14T01:12:14.104Z,102632.66
2019-02-14T01:14:38.538Z,102635.41
2019-02-14T01:17:02.949Z,102631.06
2019-02-14T01:19:27.395Z,102640.92
2019-02-14T01:21:51.811Z,102631.14
2019-02-14T01:24:16.212Z,102628.52
2019-02-14T01:26:40.648Z,102635.31
2019-02-14T01:29:05.205Z,102631.08
2019-02-14T01:31:29.654Z,102642.25
2019-02-14T01:33:54.067Z,102641.50
2019-02-14T01:36:18.586Z,102646.33
2019-02-14T01:38:43.007Z,102642.61
2019-02-14T01:41:07.451Z,102638.78
2019-02-14T01:43:31.846Z,102632.63
2019-02-14T01:45:56.287Z,102631.55
2019-02-14T01:48:20.697Z,102629.52
2019-02-14T01:50:45.131Z,102638.72
2019-02-14T01:53:09.536Z,102649.66
2019-02-14T01:55:33.976Z,102653.14
2019-02-14T01:57:58.437Z,102638.98
2019-02-14T02:00:23.280Z,102646.40
2019-02-14T02:02:47.737Z,102636.65
2019-02-14T02:05:12.219Z,102621.86
2019-02-14T02:07:36.667Z,102603.55
2019-02-14T02:10:01.070Z,102579.81
2019-02-14T02:12:25.494Z,102588.53
2019-02-14T02:14:49.906Z,102610.50
2019-02-14T02:17:14.334Z,102620.41
2019-02-14T02:19:38.736Z,102621.56
2019-02-14T02:22:03.251Z,102623.71
2019-02-14T02:24:27.657Z,102621.58
2019-02-14T02:26:52.080Z,102619.16
2019-02-14T02:29:16.494Z,102615.69
2019-02-14T02:31:40.939Z,102616.17
2019-02-14T02:34:05.424Z,102614.73
2019-02-14T02:36:29.862Z,102616.70
2019-02-14T02:38:54.344Z,102607.61
2019-02-14T02:41:18.750Z,102609.52
2019-02-14T02:43:43.180Z,102612.51
2019-02-14T02:46:07.677Z,102610.21
2019-02-14T02:48:32.148Z,102605.80
2019-02-14T02:50:56.553Z,102607.88
2019-02-14T02:53:20.985Z,102614.89
2019-02-14T02:55:45.410Z,102611.66
2019-02-14T02:58:09.843Z,102611.67
2019-02-14T03:00:34.243Z,102616.89
2019-02-14T03:02:58.676Z,102623.70
2019-02-14T03:05:23.087Z,102622.21
2019-02-14T03:07:47.606Z,102626.05
2019-02-14T03:10:13.601Z,102626.89
2019-02-14T03:12:37.975Z,102628.55
2019-02-14T03:15:02.405Z,102623.15
2019-02-14T03:17:26.803Z,102628.06
2019-02-14T03:19:51.231Z,102638.66
2019-02-14T03:22:15.638Z,102641.29
2019-02-14T03:24:40.065Z,102641.08
2019-02-14T03:27:04.535Z,102635.34
2019-02-14T03:29:28.959Z,102642.71
2019-02-14T03:31:53.361Z,102648.78
2019-02-14T03:34:17.793Z,102649.88
2019-02-14T03:36:42.195Z,102659.49
2019-02-14T03:39:07.175Z,102657.73
2019-02-14T03:41:31.582Z,102654.25
2019-02-14T03:43:56.014Z,102657.68
2019-02-14T03:46:20.491Z,102672.28
2019-02-14T03:48:44.892Z,102655.93
2019-02-14T03:51:09.394Z,102640.88
2019-02-14T03:53:33.799Z,102665.53
2019-02-14T03:55:58.373Z,102659.72
2019-02-14T03:58:22.775Z,102673.48
2019-02-14T04:00:47.311Z,102668.11
2019-02-14T04:03:11.734Z,102668.66
2019-02-14T04:05:36.178Z,102659.34
2019-02-14T04:08:00.579Z,102661.97
2019-02-14T04:10:25.021Z,102654.31
2019-02-14T04:12:49.432Z,102659.73
2019-02-14T04:15:16.240Z,102660.72
2019-02-14T04:17:40.755Z,102672.42
2019-02-14T04:20:07.127Z,102672.08
2019-02-14T04:22:31.528Z,102664.14
2019-02-14T04:24:55.945Z,102673.38
2019-02-14T04:27:20.373Z,102664.89
2019-02-14T04:29:44.782Z,102660.68
2019-02-14T04:32:09.216Z,102672.89
2019-02-14T04:34:33.621Z,102661.05
2019-02-14T04:36:58.056Z,102655.23
2019-02-14T04:39:22.475Z,102659.47
2019-02-14T04:41:46.917Z,102668.75
2019-02-14T04:44:11.329Z,102661.23
2019-02-14T04:46:35.760Z,102663.14
2019-02-14T04:49:00.170Z,102674.41
2019-02-14T04:51:24.614Z,102670.31
2019-02-14T04:53:49.031Z,102681.17
2019-02-14T04:56:13.433Z,102674.72
2019-02-14T04:58:37.855Z,102678.86
2019-02-14T05:01:02.270Z,102684.12
2019-02-14T05:03:26.705Z,102684.00
2019-02-14T05:05:51.106Z,102691.89
2019-02-14T05:08:15.537Z,102685.05
2019-02-14T05:10:39.936Z,102703.50
2019-02-14T05:13:04.439Z,102683.22
2019-02-14T05:15:28.849Z,102697.81
2019-02-14T05:17:53.280Z,102685.77
2019-02-14T05:20:17.682Z,102684.17
2019-02-14T05:22:42.123Z,102680.89
2019-02-14T05:25:08.280Z,102705.72
2019-02-14T05:27:32.713Z,102693.20
2019-02-14T05:29:57.126Z,102701.28
2019-02-14T05:32:21.546Z,102703.91
2019-02-14T05:34:45.976Z,102714.55
2019-02-14T05:37:10.389Z,102718.48
2019-02-14T05:39:34.817Z,102709.33
2019-02-14T05:41:59.295Z,102717.21
2019-02-14T05:44:23.808Z,102714.91
2019-02-14T05:46:48.206Z,102703.50
2019-02-14T05:49:12.643Z,102713.40
2019-02-14T05:51:37.053Z,102703.14
2019-02-14T05:54:01.480Z,102702.42
2019-02-14T05:56:25.884Z,102704.66
2019-02-14T05:58:50.328Z,102705.95
2019-02-14T06:01:16.380Z,102716.77
2019-02-14T06:03:40.817Z,102729.25
2019-02-14T06:06:05.288Z,102730.11
2019-02-14T06:08:29.721Z,102728.73
2019-02-14T06:10:54.203Z,102720.45
2019-02-14T06:13:18.623Z,102714.22
2019-02-14T06:15:43.072Z,102731.92
2019-02-14T06:18:07.470Z,102732.16
2019-02-14T06:20:31.899Z,102660.07
2019-02-14T06:22:56.383Z,102700.14
2019-02-14T06:25:20.898Z,102701.23
2019-02-14T06:27:45.325Z,102704.53
2019-02-14T06:30:14.558Z,102711.28
2019-02-14T06:32:38.956Z,102711.97
2019-02-14T06:35:03.573Z,102708.56
2019-02-14T06:37:27.986Z,102701.45
2019-02-14T06:39:52.424Z,102718.66
2019-02-14T06:42:16.836Z,102727.59
2019-02-14T06:44:41.268Z,102732.39
2019-02-14T06:47:05.697Z,102732.63
2019-02-14T06:49:30.112Z,102724.37
2019-02-14T06:51:54.531Z,102720.50
2019-02-14T06:54:18.971Z,102729.09
2019-02-14T06:56:43.367Z,102734.59
2019-02-14T06:59:07.775Z,102728.72
2019-02-14T07:01:32.204Z,102729.76
2019-02-14T07:03:56.667Z,102740.47
2019-02-14T07:06:21.111Z,102746.92
2019-02-14T07:08:45.526Z,102751.66
2019-02-14T07:11:10.029Z,102753.90
2019-02-14T07:13:34.429Z,102753.13
2019-02-14T07:15:58.858Z,102754.63
2019-02-14T07:18:23.265Z,102754.86
2019-02-14T07:20:47.700Z,102766.16
2019-02-14T07:23:12.092Z,102754.98
2019-02-14T07:25:36.580Z,102759.99
2019-02-14T07:28:01.009Z,102772.47
2019-02-14T07:30:27.623Z,102776.04
2019-02-14T07:32:52.123Z,102778.19
2019-02-14T07:35:16.538Z,102778.82
2019-02-14T07:37:40.970Z,102772.91
2019-02-14T07:40:12.998Z,102786.20
2019-02-14T07:42:37.456Z,102788.47
2019-02-14T07:45:01.896Z,102788.05
2019-02-14T07:47:26.466Z,102773.27
2019-02-14T07:49:50.944Z,102773.22
2019-02-14T07:52:15.379Z,102768.81
2019-02-14T07:54:39.800Z,102774.36
2019-02-14T07:57:04.208Z,102771.60
2019-02-14T07:59:28.652Z,102775.91
2019-02-14T08:01:53.063Z,102776.13
2019-02-14T08:04:17.504Z,102771.47
2019-02-14T08:06:42.066Z,102775.06
2019-02-14T08:09:06.577Z,102773.00
2019-02-14T08:11:30.995Z,102771.70
2019-02-14T08:13:55.458Z,102771.37
2019-02-14T08:16:19.864Z,102773.47
2019-02-14T08:18:44.282Z,102773.94
2019-02-14T08:21:08.703Z,102772.05
2019-02-14T08:23:33.213Z,102772.68
2019-02-14T08:25:57.635Z,102761.27
2019-02-14T08:28:22.073Z,102771.00
2019-02-14T08:30:46.477Z,102762.92
2019-02-14T08:33:10.893Z,102769.59
2019-02-14T08:35:35.320Z,102774.84
2019-02-14T08:37:59.733Z,102772.98
2019-02-14T08:40:34.039Z,102773.34
2019-02-14T08:42:58.835Z,102777.90
2019-02-14T08:45:23.257Z,102774.39
2019-02-14T08:47:49.279Z,102766.78
2019-02-14T08:50:13.778Z,102768.94
2019-02-14T08:52:38.194Z,102766.26
2019-02-14T08:55:02.633Z,102765.64
2019-02-14T08:57:27.032Z,102762.20
2019-02-14T08:59:51.474Z,102762.81
2019-02-14T09:02:15.906Z,102761.52
2019-02-14T09:04:40.360Z,102772.05
2019-02-14T09:07:04.841Z,102768.59
2019-02-14T09:09:29.277Z,102777.86
2019-02-14T09:11:53.715Z,102768.28
2019-02-14T09:14:18.169Z,102775.86
2019-02-14T09:16:42.601Z,102715.88
2019-02-14T09:19:07.816Z,102766.45
2019-02-14T09:21:32.250Z,102766.29
2019-02-14T09:23:56.664Z,102773.50
2019-02-14T09:26:21.176Z,102769.15
2019-02-14T09:28:45.586Z,102764.89
2019-02-14T09:31:10.011Z,102778.33
2019-02-14T09:33:34.413Z,102782.58
2019-02-14T09:35:58.850Z,102789.60
2019-02-14T09:38:23.271Z,102788.84
2019-02-14T09:40:47.727Z,102789.09
2019-02-14T09:43:12.127Z,102784.18
2019-02-14T09:45:37.441Z,102775.55
2019-02-14T09:48:01.879Z,102774.55
2019-02-14T09:50:26.354Z,102779.97
2019-02-14T09:52:50.803Z,102770.56
2019-02-14T09:55:15.227Z,102768.58
2019-02-14T09:57:39.731Z,102771.21
2019-02-14T10:00:05.812Z,102772.33
2019-02-14T10:02:30.263Z,102777.83
2019-02-14T10:04:54.678Z,102777.35
2019-02-14T10:07:19.111Z,102776.23
2019-02-14T10:09:43.524Z,102767.38
2019-02-14T10:12:07.951Z,102729.88
2019-02-14T10:14:32.372Z,102764.82
2019-02-14T10:16:56.821Z,102765.27
2019-02-14T10:19:21.249Z,102762.56
2019-02-14T10:21:45.655Z,102755.61
2019-02-14T10:24:10.098Z,102754.11
2019-02-14T10:26:34.517Z,102758.80
2019-02-14T10:28:59.018Z,102760.50
2019-02-14T10:31:23.415Z,102760.55
2019-02-14T10:33:47.875Z,102757.73
2019-02-14T10:36:12.287Z,102764.32
2019-02-14T10:38:36.724Z,102756.70
2019-02-14T10:41:01.139Z,102750.78
2019-02-14T10:43:25.594Z,102752.55
2019-02-14T10:45:50.082Z,102753.97
2019-02-14T10:48:14.534Z,102750.13
2019-02-14T10:50:39.025Z,102747.30
2019-02-14T10:53:03.495Z,102745.08
2019-02-14T10:55:27.950Z,102737.40
2019-02-14T10:57:52.350Z,102718.50
2019-02-14T11:00:22.428Z,102708.95
2019-02-14T11:02:47.280Z,102717.54
2019-02-14T11:05:12.072Z,102708.76
2019-02-14T11:35:33.896Z,102694.59
2019-02-14T11:38:15.885Z,102685.39
2019-02-14T11:40:58.095Z,102684.94
2019-02-14T11:43:21.692Z,102635.89
2019-02-14T11:45:46.142Z,102686.59
2019-02-14T11:48:10.564Z,102681.67
2019-02-14T11:50:34.993Z,102684.66
2019-02-14T11:52:59.400Z,102691.61
2019-02-14T11:55:23.982Z,102683.05
2019-02-14T11:57:48.489Z,102682.16
2019-02-14T12:00:22.781Z,102678.50
2019-02-14T12:02:54.997Z,102678.27
2019-02-14T14:22:47.926Z,102619.42
2019-02-14T14:25:32.628Z,102619.48
2019-02-14T14:28:14.215Z,102617.30
2019-02-14T14:30:38.738Z,102619.60
2019-02-14T14:33:03.132Z,102622.11
2019-02-14T14:35:27.642Z,102625.86
2019-02-14T14:37:52.042Z,102627.09
2019-02-14T14:40:17.925Z,102614.98
2019-02-14T14:42:52.590Z,102622.09
2019-02-14T14:45:18.670Z,102625.58
2019-02-14T14:47:43.084Z,102622.72
2019-02-14T14:50:08.445Z,102620.02
2019-02-14T14:52:32.874Z,102615.15
2019-02-14T14:54:57.289Z,102614.33
2019-02-14T14:57:21.720Z,102609.70
2019-02-14T14:59:46.144Z,102605.27
2019-02-14T15:02:10.652Z,102608.47
2019-02-14T15:04:35.058Z,102608.53
2019-02-14T15:06:59.515Z,102608.53
2019-02-14T15:09:23.931Z,102598.98
2019-02-14T15:11:48.527Z,102598.98
2019-02-14T15:14:12.955Z,102596.16
2019-02-14T15:16:37.369Z,102597.38
2019-02-14T15:19:01.863Z,102598.05
2019-02-14T15:21:26.284Z,102592.97
2019-02-14T15:23:50.735Z,102597.23
2019-02-14T15:26:15.227Z,102599.09
2019-02-14T15:28:39.686Z,102596.85
2019-02-14T15:31:04.179Z,102601.03
2019-02-14T15:33:28.706Z,102595.48
2019-02-14T15:35:53.101Z,102593.28
2019-02-14T15:38:17.634Z,102597.34
2019-02-14T15:40:42.126Z,102598.93
2019-02-14T15:43:06.660Z,102596.98
2019-02-14T15:45:31.086Z,102599.55
2019-02-14T15:47:55.568Z,102596.35
2019-02-14T15:50:20.028Z,102598.02
2019-02-14T15:52:44.440Z,102600.79
2019-02-14T15:55:09.010Z,102599.76
2019-02-14T15:57:33.498Z,102599.20
2019-02-14T15:59:57.951Z,102600.22
2019-02-14T16:02:22.367Z,102609.59
2019-02-14T16:04:46.837Z,102600.16
2019-02-14T16:07:13.171Z,102608.62
2019-02-14T16:09:38.877Z,102607.82
2019-02-14T16:12:03.674Z,102613.41
2019-02-14T16:14:28.123Z,102607.47
2019-02-14T16:16:52.538Z,102610.05
2019-02-14T16:19:17.003Z,102610.53
2019-02-14T16:21:41.534Z,102607.25
2019-02-14T16:24:05.941Z,102604.72
2019-02-14T16:26:30.400Z,102607.33
2019-02-14T16:28:54.837Z,102604.90
2019-02-14T16:31:19.367Z,102602.02
2019-02-14T16:33:43.897Z,102600.71
2019-02-14T16:36:08.433Z,102598.48
2019-02-14T16:38:33.565Z,102597.29
2019-02-14T16:40:59.027Z,102594.95
2019-02-14T16:43:23.502Z,102603.22
2019-02-14T16:45:47.957Z,102593.38
2019-02-14T16:48:12.526Z,102594.47
2019-02-14T16:50:36.943Z,102589.97
2019-02-14T16:53:01.367Z,102588.85
2019-02-14T16:55:25.899Z,102592.41
2019-02-14T16:57:50.397Z,102591.53
2019-02-14T17:00:15.049Z,102591.16
2019-02-14T17:02:39.500Z,102592.56
2019-02-14T17:05:04.148Z,102588.72
2019-02-14T17:07:28.589Z,102593.87
2019-02-14T17:09:53.074Z,102584.36
2019-02-14T17:12:17.516Z,102592.25
2019-02-14T17:14:41.944Z,102587.24
2019-02-14T17:17:06.395Z,102596.12
2019-02-14T17:19:30.887Z,102597.89
2019-02-14T17:21:55.349Z,102600.02
2019-02-14T17:24:19.752Z,102602.25
2019-02-14T17:26:44.184Z,102603.73
2019-02-14T17:29:08.635Z,102570.23
2019-02-14T17:31:33.082Z,102606.75
2019-02-14T17:33:57.493Z,102611.33
2019-02-14T17:36:21.972Z,102611.75
2019-02-14T17:38:46.493Z,102615.98
2019-02-14T17:41:10.918Z,102613.39
2019-02-14T17:43:35.437Z,102611.41
2019-02-14T17:45:59.944Z,102617.89
2019-02-14T17:48:24.708Z,102614.50
2019-02-14T17:50:50.577Z,102617.69
2019-02-14T17:53:15.112Z,102618.26
2019-02-14T17:55:39.622Z,102611.11
2019-02-14T17:58:04.064Z,102620.41
2019-02-14T18:00:29.657Z,102624.11
2019-02-14T18:02:54.101Z,102618.58
2019-02-14T18:05:18.587Z,102619.56
2019-02-14T18:07:43.057Z,102620.31
2019-02-14T18:10:10.621Z,102614.28
2019-02-14T18:12:35.043Z,102617.28
2019-02-14T18:14:59.482Z,102616.91
2019-02-14T18:17:23.960Z,102615.94
2019-02-14T18:19:48.448Z,102611.74
2019-02-14T18:22:12.977Z,102614.98
2019-02-14T18:24:37.441Z,102612.51
2019-02-14T18:27:01.918Z,102613.69
2019-02-14T18:29:26.384Z,102624.48
2019-02-14T18:31:50.897Z,102617.48
2019-02-14T18:34:15.360Z,102615.68
2019-02-14T18:36:39.855Z,102619.25
2019-02-14T18:39:05.847Z,102618.23
2019-02-14T18:41:30.260Z,102619.24
2019-02-14T18:43:54.746Z,102614.91
2019-02-14T18:46:19.158Z,102621.02
2019-02-14T18:48:43.575Z,102616.58
2019-02-14T18:51:08.031Z,102620.84
2019-02-14T18:53:32.443Z,102617.17
2019-02-14T18:55:56.908Z,102614.92
2019-02-14T18:58:26.474Z,102621.20
2019-02-14T19:00:47.661Z,102618.72
2019-02-14T19:03:12.141Z,102611.38
2019-02-14T19:05:36.647Z,102622.23
2019-02-14T19:08:01.106Z,102628.69
2019-02-14T19:10:25.557Z,102623.86
2019-02-14T19:12:49.963Z,102622.39
2019-02-14T19:15:14.885Z,102624.66
2019-02-14T19:17:39.380Z,102622.94
2019-02-14T19:20:04.589Z,102622.32
2019-02-14T19:22:29.099Z,102615.30
2019-02-14T19:24:53.584Z,102619.67
2019-02-14T19:27:18.086Z,102612.72
2019-02-14T19:29:42.493Z,102622.09
2019-02-14T19:32:06.936Z,102619.95
2019-02-14T19:34:31.343Z,102625.21
2019-02-14T19:36:55.807Z,102623.52
2019-02-14T19:39:20.240Z,102634.94
2019-02-14T19:41:44.675Z,102631.99
2019-02-14T19:44:09.078Z,102625.48
2019-02-14T19:46:33.525Z,102627.73
2019-02-14T19:48:57.946Z,102624.05
2019-02-14T19:51:22.399Z,102622.87
2019-02-14T19:53:46.818Z,102624.13
2019-02-14T19:56:11.255Z,102623.27
2019-02-14T19:58:35.654Z,102625.50
2019-02-14T20:01:00.086Z,102628.30
2019-02-14T20:03:24.622Z,102633.36
2019-02-14T20:05:49.116Z,102631.48
2019-02-14T20:08:13.600Z,102631.85
2019-02-14T20:10:38.085Z,102633.65
2019-02-14T20:13:02.572Z,102635.38
2019-02-14T20:15:36.415Z,102635.43
2019-02-14T20:17:53.245Z,102637.40
2019-02-14T20:20:17.656Z,102637.32
2019-02-14T20:22:42.167Z,102633.41
2019-02-14T20:25:15.490Z,102632.44
2019-02-14T20:27:39.986Z,102632.91
2019-02-14T20:30:06.694Z,102630.64
2019-02-14T20:32:31.145Z,102638.09
2019-02-14T20:34:55.558Z,102641.18
2019-02-14T20:37:19.976Z,102632.72
2019-02-14T20:39:44.409Z,102632.39
2019-02-14T20:42:08.886Z,102629.18
2019-02-14T20:44:34.867Z,102631.44
2019-02-14T20:46:59.365Z,102626.92
2019-02-14T20:49:23.805Z,102627.47
2019-02-14T20:51:48.298Z,102622.68
2019-02-14T20:54:12.754Z,102623.35
2019-02-14T20:56:37.155Z,102629.42
2019-02-14T20:59:01.615Z,102630.16
2019-02-14T21:01:26.090Z,102620.42
2019-02-14T21:03:50.535Z,102630.38
2019-02-14T21:06:15.028Z,102625.34
2019-02-14T21:08:39.532Z,102621.59
2019-02-14T21:11:04.005Z,102613.98
2019-02-14T21:13:28.615Z,102616.37
2019-02-14T21:15:53.086Z,102618.56
2019-02-14T21:18:17.533Z,102617.91
2019-02-14T21:20:42.001Z,102611.53
2019-02-14T21:23:06.427Z,102611.62
2019-02-14T21:25:30.833Z,102616.69
2019-02-14T21:27:55.239Z,102626.44
2019-02-14T21:30:20.723Z,102629.85
2019-02-14T21:32:45.189Z,102625.50
2019-02-14T21:35:09.858Z,102623.64
2019-02-14T21:37:34.343Z,102626.02
2019-02-14T21:39:58.771Z,102624.61
2019-02-14T21:42:29.089Z,102621.96
2019-02-14T21:44:49.372Z,102621.19
2019-02-14T21:47:13.794Z,102622.80
2019-02-14T21:49:38.233Z,102631.84
2019-02-14T21:52:02.673Z,102629.95
2019-02-14T21:54:27.076Z,102628.19
2019-02-14T21:56:51.490Z,102627.11
2019-02-14T21:59:15.895Z,102630.15
2019-02-14T22:01:40.329Z,102625.95
2019-02-14T22:04:04.910Z,102628.06
2019-02-14T22:06:29.369Z,102634.10
2019-02-14T22:08:53.864Z,102628.21
2019-02-14T22:11:18.397Z,102631.44
2019-02-14T22:13:42.882Z,102630.27
2019-02-14T22:16:07.383Z,102627.39
2019-02-14T22:18:31.794Z,102622.88
2019-02-14T22:20:56.234Z,102632.78
2019-02-14T22:23:20.665Z,102632.30
2019-02-14T22:25:45.075Z,102628.14
2019-02-14T22:28:09.533Z,102628.64
2019-02-14T22:30:33.954Z,102631.31
2019-02-14T22:32:58.382Z,102628.52
2019-02-14T22:35:22.798Z,102628.58
2019-02-14T22:37:47.319Z,102630.53
2019-02-14T22:40:12.770Z,102629.67
2019-02-14T22:42:46.194Z,102629.13
2019-02-14T22:45:03.652Z,102626.87
2019-02-14T22:47:28.084Z,102628.37
2019-02-14T22:49:52.496Z,102626.50
2019-02-14T22:52:16.966Z,102625.03
2019-02-14T22:54:41.370Z,102631.26
2019-02-14T22:57:05.808Z,102630.36
2019-02-14T22:59:30.297Z,102623.36
2019-02-14T23:01:54.859Z,102622.80
2019-02-14T23:04:19.286Z,102626.94
2019-02-14T23:06:43.696Z,102625.61
2019-02-14T23:09:08.883Z,102624.06
2019-02-14T23:11:33.349Z,102622.94
2019-02-14T23:13:57.781Z,102622.41
2019-02-14T23:16:22.332Z,102614.13
2019-02-14T23:18:46.753Z,102620.16
2019-02-14T23:21:11.225Z,102622.81
2019-02-14T23:23:35.659Z,102623.83
2019-02-14T23:26:00.073Z,102620.09
2019-02-14T23:28:24.504Z,102621.48
2019-02-14T23:30:48.903Z,102619.81
2019-02-14T23:33:13.425Z,102619.53
2019-02-14T23:35:37.832Z,102621.59
2019-02-14T23:38:02.244Z,102613.98
2019-02-14T23:40:26.743Z,102621.11
2019-02-14T23:42:51.209Z,102614.76
2019-02-14T23:45:15.642Z,102612.65
2019-02-14T23:47:40.047Z,102616.66
2019-02-14T23:50:06.835Z,102616.79
2019-02-14T23:52:31.230Z,102619.55
2019-02-14T23:54:55.677Z,102616.15
2019-02-14T23:57:20.068Z,102618.03
2019-02-14T23:59:44.483Z,102617.80
